createdAt,value
2022-10-14T00:00:21.132Z,49.80
2022-10-14T00:02:47.740Z,55.67
2022-10-14T00:05:14.144Z,50.07
2022-10-14T00:07:40.819Z,48.72
2022-10-14T00:10:07.428Z,47.73
2022-10-14T00:12:33.937Z,55.58
2022-10-14T00:15:00.504Z,49.10
2022-10-14T00:17:26.937Z,49.90
2022-10-14T00:19:53.387Z,49.83
2022-10-14T00:22:19.803Z,52.77
2022-10-14T00:24:46.227Z,49.53
2022-10-14T00:27:12.674Z,51.43
2022-10-14T00:29:39.095Z,49.37
2022-10-14T00:32:05.530Z,53.20
2022-10-14T00:34:32.470Z,47.03
2022-10-14T00:36:58.870Z,49.60
2022-10-14T00:39:25.299Z,52.03
2022-10-14T00:41:51.732Z,49.67
2022-10-14T00:44:18.117Z,47.87
2022-10-14T00:46:45.264Z,50.17
2022-10-14T00:49:23.986Z,48.47
2022-10-14T00:52:00.992Z,50.30
2022-10-14T00:54:32.228Z,45.25
2022-10-14T00:56:58.678Z,48.00
2022-10-14T00:59:25.108Z,49.33
2022-10-14T01:01:51.517Z,51.15
2022-10-14T01:04:17.974Z,46.10
2022-10-14T01:06:48.054Z,46.50
2022-10-14T01:09:29.855Z,47.83
2022-10-14T01:12:30.301Z,46.73
2022-10-14T01:15:05.200Z,47.30
2022-10-14T01:17:37.765Z,46.53
2022-10-14T01:20:22.588Z,48.00
2022-10-14T01:22:51.972Z,43.87
2022-10-14T01:25:32.605Z,47.23
2022-10-14T01:28:17.864Z,49.03
2022-10-14T01:30:44.888Z,46.93
2022-10-14T01:33:33.115Z,46.60
2022-10-14T01:36:04.395Z,42.73
2022-10-14T01:38:32.179Z,43.90
2022-10-14T01:41:00.701Z,43.33
2022-10-14T01:43:27.595Z,47.60
2022-10-14T01:45:54.072Z,48.07
2022-10-14T01:48:21.399Z,41.47
2022-10-14T01:50:48.223Z,38.37
2022-10-14T01:53:16.901Z,41.27
2022-10-14T01:55:44.723Z,41.67
2022-10-14T01:58:11.251Z,45.27
2022-10-14T02:00:38.425Z,45.20
2022-10-14T02:03:04.841Z,41.83
2022-10-14T02:05:31.264Z,43.03
2022-10-14T02:07:58.577Z,40.20
2022-10-14T02:10:25.033Z,39.83
2022-10-14T02:13:10.303Z,40.33
2022-10-14T02:15:39.700Z,42.20
2022-10-14T02:18:06.993Z,38.93
2022-10-14T02:20:37.772Z,42.07
2022-10-14T02:23:06.565Z,38.03
2022-10-14T02:25:34.441Z,41.13
2022-10-14T02:28:00.961Z,36.80
2022-10-14T02:30:27.679Z,47.47
2022-10-14T02:32:54.176Z,45.67
2022-10-14T02:35:20.687Z,43.20
2022-10-14T02:37:47.487Z,43.80
2022-10-14T02:40:14.818Z,43.53
2022-10-14T02:42:41.291Z,44.23
2022-10-14T02:45:08.005Z,39.67
2022-10-14T02:47:34.423Z,41.73
2022-10-14T02:50:00.851Z,46.25
2022-10-14T02:52:27.299Z,38.90
2022-10-14T02:54:53.749Z,43.37
2022-10-14T02:57:20.177Z,42.90
2022-10-14T02:59:46.698Z,40.00
2022-10-14T03:02:13.212Z,47.43
2022-10-14T03:04:39.641Z,42.33
2022-10-14T03:07:06.089Z,40.87
2022-10-14T03:09:32.534Z,42.27
2022-10-14T03:11:58.939Z,41.77
2022-10-14T03:14:25.379Z,41.23
2022-10-14T03:16:51.803Z,44.87
2022-10-14T03:19:18.257Z,47.40
2022-10-14T03:21:44.657Z,41.60
2022-10-14T03:24:11.154Z,46.77
2022-10-14T03:26:37.557Z,43.07
2022-10-14T03:29:03.991Z,43.63
2022-10-14T03:31:30.398Z,43.07
2022-10-14T03:33:56.841Z,42.03
2022-10-14T03:36:23.343Z,40.83
2022-10-14T03:38:49.771Z,43.10
2022-10-14T03:41:16.196Z,38.13
2022-10-14T03:43:42.603Z,42.17
2022-10-14T03:46:09.031Z,48.60
2022-10-14T03:48:35.446Z,43.10
2022-10-14T03:51:01.948Z,44.97
2022-10-14T03:53:28.371Z,41.37
2022-10-14T03:55:54.813Z,44.07
2022-10-14T03:58:21.250Z,47.53
2022-10-14T04:00:47.811Z,42.53
2022-10-14T04:03:14.291Z,46.37
2022-10-14T04:05:40.790Z,48.97
2022-10-14T04:08:07.193Z,42.93
2022-10-14T04:10:33.650Z,45.17
2022-10-14T04:13:00.059Z,48.47
2022-10-14T04:15:26.626Z,40.40
2022-10-14T04:17:53.065Z,43.00
2022-10-14T04:20:19.596Z,43.87
2022-10-14T04:22:46.019Z,40.97
2022-10-14T04:25:12.521Z,40.57
2022-10-14T04:27:38.971Z,39.63
2022-10-14T04:30:05.690Z,40.17
2022-10-14T04:32:32.167Z,40.33
2022-10-14T04:34:58.603Z,40.97
2022-10-14T04:37:25.142Z,40.73
2022-10-14T04:39:51.573Z,39.90
2022-10-14T04:42:18.002Z,40.73
2022-10-14T04:44:44.432Z,44.17
2022-10-14T04:47:10.843Z,40.23
2022-10-14T04:49:37.257Z,47.67
2022-10-14T04:52:03.704Z,45.17
2022-10-14T04:54:30.897Z,49.77
2022-10-14T04:56:57.306Z,46.53
2022-10-14T04:59:23.721Z,45.10
2022-10-14T05:01:50.215Z,44.87
2022-10-14T05:04:16.729Z,43.67
2022-10-14T05:06:43.211Z,46.33
2022-10-14T05:09:09.614Z,47.53
2022-10-14T05:11:36.109Z,44.37
2022-10-14T05:14:02.534Z,48.70
2022-10-14T05:16:29.024Z,49.80
2022-10-14T05:18:55.449Z,46.10
2022-10-14T05:21:21.879Z,48.47
2022-10-14T05:23:48.273Z,40.53
2022-10-14T05:26:14.778Z,51.67
2022-10-14T05:28:41.314Z,44.83
2022-10-14T05:31:07.863Z,46.43
2022-10-14T05:33:34.750Z,52.00
2022-10-14T05:36:01.162Z,47.63
2022-10-14T05:38:27.619Z,51.83
2022-10-14T05:40:54.632Z,39.50
2022-10-14T05:43:21.181Z,42.23
2022-10-14T05:45:47.674Z,46.80
2022-10-14T05:48:14.122Z,48.27
2022-10-14T05:50:40.533Z,44.43
2022-10-14T05:53:06.979Z,47.90
2022-10-14T05:55:33.450Z,45.77
2022-10-14T05:58:00.348Z,43.55
2022-10-14T06:00:26.768Z,43.77
2022-10-14T06:02:53.312Z,46.30
2022-10-14T06:05:19.830Z,42.70
2022-10-14T06:07:46.311Z,41.13
2022-10-14T06:10:12.806Z,47.07
2022-10-14T06:12:39.300Z,44.22
2022-10-14T06:15:05.977Z,46.47
2022-10-14T06:17:32.406Z,41.73
2022-10-14T06:19:58.790Z,42.25
2022-10-14T06:22:25.297Z,43.33
2022-10-14T06:24:51.697Z,42.70
2022-10-14T06:27:18.160Z,45.75
2022-10-14T06:29:44.645Z,40.20
2022-10-14T06:32:11.099Z,41.83
2022-10-14T06:34:37.549Z,47.97
2022-10-14T06:37:04.019Z,43.43
2022-10-14T06:39:30.529Z,42.03
2022-10-14T06:41:57.048Z,48.57
2022-10-14T06:44:23.548Z,44.27
2022-10-14T06:46:50.015Z,44.00
2022-10-14T06:49:16.494Z,48.83
2022-10-14T06:51:42.968Z,56.63
2022-10-14T06:54:09.544Z,51.43
2022-10-14T06:56:36.033Z,50.93
2022-10-14T06:59:02.703Z,50.53
2022-10-14T07:01:29.230Z,43.23
2022-10-14T07:03:56.796Z,45.80
2022-10-14T07:06:23.563Z,41.13
2022-10-14T07:08:50.070Z,46.93
2022-10-14T07:11:16.474Z,43.67
2022-10-14T07:13:43.127Z,43.23
2022-10-14T07:16:09.644Z,45.03
2022-10-14T07:18:36.162Z,41.38
2022-10-14T07:21:05.672Z,46.87
2022-10-14T07:23:32.166Z,54.55
2022-10-14T07:25:58.956Z,60.90
2022-10-14T07:28:25.421Z,52.65
2022-10-14T07:31:01.779Z,51.95
2022-10-14T07:33:28.317Z,51.15
2022-10-14T07:35:55.213Z,50.53
2022-10-14T07:38:22.037Z,49.55
2022-10-14T07:40:58.685Z,54.38
2022-10-14T07:43:25.140Z,45.42
2022-10-14T07:45:51.678Z,50.08
2022-10-14T07:48:27.147Z,52.72
2022-10-14T07:50:59.435Z,47.92
2022-10-14T07:53:25.827Z,54.70
2022-10-14T07:55:52.444Z,51.65
2022-10-14T07:58:19.796Z,48.80
2022-10-14T08:00:46.278Z,47.58
2022-10-14T08:03:12.686Z,49.17
2022-10-14T08:05:39.280Z,42.77
2022-10-14T08:08:05.777Z,40.88
2022-10-14T08:10:32.326Z,52.78
2022-10-14T08:12:58.727Z,42.92
2022-10-14T08:15:28.630Z,44.83
2022-10-14T08:17:55.034Z,46.10
2022-10-14T08:22:47.782Z,49.63
2022-10-14T08:25:14.281Z,47.70
2022-10-14T08:27:40.797Z,50.03
2022-10-14T08:30:11.062Z,49.40
2022-10-14T08:32:38.292Z,55.10
2022-10-14T08:35:05.003Z,49.65
2022-10-14T08:37:31.428Z,50.05
2022-10-14T08:39:57.979Z,49.20
2022-10-14T08:42:24.758Z,53.85
2022-10-14T08:44:58.131Z,51.17
2022-10-14T08:47:26.733Z,52.85
2022-10-14T08:50:19.516Z,60.17
2022-10-14T08:52:48.020Z,57.63
2022-10-14T08:55:19.042Z,55.97
2022-10-14T08:57:49.569Z,60.03
2022-10-14T09:00:16.551Z,59.13
2022-10-14T09:02:44.542Z,58.10
2022-10-14T09:05:17.740Z,57.03
2022-10-14T09:07:44.811Z,51.65
2022-10-14T09:10:12.098Z,54.92
2022-10-14T09:12:38.580Z,51.13
2022-10-14T09:15:12.322Z,54.13
2022-10-14T09:17:43.488Z,52.85
2022-10-14T09:20:20.364Z,53.78
2022-10-14T09:22:53.341Z,54.53
2022-10-14T09:25:19.935Z,53.75
2022-10-14T09:30:14.289Z,50.97
2022-10-14T09:32:41.472Z,49.05
2022-10-14T09:35:15.601Z,55.60
2022-10-14T09:37:42.489Z,53.95
2022-10-14T09:40:08.897Z,52.92
2022-10-14T09:42:47.664Z,49.22
2022-10-14T09:45:15.076Z,47.25
2022-10-14T09:47:47.577Z,46.47
2022-10-14T09:50:20.148Z,46.33
2022-10-14T09:52:49.124Z,43.17
2022-10-14T09:55:18.889Z,42.67
2022-10-14T09:57:45.379Z,42.60
2022-10-14T10:00:25.003Z,45.15
2022-10-14T10:02:53.094Z,47.67
2022-10-14T10:05:23.752Z,38.35
2022-10-14T10:08:05.797Z,35.50
2022-10-14T10:10:34.838Z,44.05
2022-10-14T10:13:01.653Z,38.85
2022-10-14T10:15:28.378Z,37.63
2022-10-14T10:17:54.779Z,38.47
2022-10-14T10:20:28.681Z,39.40
2022-10-14T10:22:56.625Z,37.95
2022-10-14T10:25:26.781Z,35.17
2022-10-14T10:27:53.336Z,38.30
2022-10-14T10:30:29.669Z,35.25
2022-10-14T10:33:09.076Z,31.45
2022-10-14T10:35:48.137Z,37.90
2022-10-14T10:38:14.531Z,28.55
2022-10-14T10:40:41.917Z,31.95
2022-10-14T10:43:40.889Z,28.88
2022-10-14T10:46:25.898Z,30.08
2022-10-14T10:48:57.989Z,32.60
2022-10-14T10:51:26.806Z,36.13
2022-10-14T10:53:56.999Z,35.33
2022-10-14T10:56:38.879Z,28.60
2022-10-14T10:59:06.573Z,27.42
2022-10-14T11:01:36.899Z,27.13
2022-10-14T11:04:22.476Z,27.73
2022-10-14T11:07:28.253Z,25.67
2022-10-14T11:10:22.412Z,32.13
2022-10-14T11:13:11.817Z,27.80
2022-10-14T11:15:49.628Z,34.05
2022-10-14T11:18:35.185Z,25.23
2022-10-14T11:21:07.872Z,35.58
2022-10-14T11:23:59.695Z,29.83
2022-10-14T11:26:45.586Z,35.05
2022-10-14T11:29:20.513Z,28.20
2022-10-14T11:31:51.819Z,30.45
2022-10-14T11:34:18.239Z,28.20
2022-10-14T11:36:59.962Z,35.05
2022-10-14T11:39:31.967Z,31.13
2022-10-14T11:42:01.612Z,24.85
2022-10-14T11:47:05.414Z,26.95
2022-10-14T11:49:33.234Z,27.05
2022-10-14T11:52:14.688Z,29.45
2022-10-14T11:54:41.205Z,25.85
2022-10-14T11:57:10.802Z,27.42
2022-10-14T11:59:56.019Z,27.92
2022-10-14T12:02:26.381Z,30.45
2022-10-14T12:04:55.216Z,29.33
2022-10-14T12:07:24.711Z,28.50
2022-10-14T12:10:13.481Z,24.05
2022-10-14T12:12:40.006Z,22.13
2022-10-14T12:15:07.347Z,24.20
2022-10-14T12:17:35.429Z,23.40
2022-10-14T12:20:03.932Z,22.63
2022-10-14T12:22:30.575Z,23.13
2022-10-14T12:24:58.030Z,24.17
2022-10-14T12:27:24.817Z,27.38
2022-10-14T12:29:51.748Z,23.63
2022-10-14T12:32:21.647Z,26.75
2022-10-14T12:34:53.882Z,25.42
2022-10-14T12:37:31.775Z,26.17
2022-10-14T12:40:07.694Z,25.33
2022-10-14T12:42:35.045Z,19.23
2022-10-14T12:45:02.165Z,22.00
2022-10-14T12:47:29.578Z,20.45
2022-10-14T12:49:56.487Z,21.30
2022-10-14T12:52:27.247Z,24.42
2022-10-14T12:54:53.659Z,22.40
2022-10-14T12:57:20.401Z,22.00
2022-10-14T12:59:49.028Z,22.38
2022-10-14T13:02:18.526Z,23.60
2022-10-14T13:04:48.833Z,26.30
2022-10-14T13:07:52.213Z,32.03
2022-10-14T13:10:23.502Z,27.80
2022-10-14T13:12:49.960Z,27.67
2022-10-14T13:15:35.226Z,26.77
2022-10-14T13:18:40.434Z,23.90
2022-10-14T13:21:07.689Z,22.63
2022-10-14T13:23:41.248Z,24.10
2022-10-14T13:26:27.949Z,24.13
2022-10-14T13:29:00.666Z,28.05
2022-10-14T13:31:46.084Z,22.55
2022-10-14T13:34:18.550Z,29.95
2022-10-14T13:36:51.095Z,22.60
2022-10-14T13:39:17.496Z,23.02
2022-10-14T13:41:43.959Z,23.92
2022-10-14T13:44:10.570Z,22.52
2022-10-14T13:46:39.001Z,24.63
2022-10-14T13:49:05.919Z,21.65
2022-10-14T13:51:42.507Z,21.05
2022-10-14T13:54:16.843Z,22.73
2022-10-14T13:56:43.455Z,20.23
2022-10-14T13:59:39.245Z,23.00
2022-10-14T14:02:09.844Z,24.52
2022-10-14T14:04:36.510Z,24.27
2022-10-14T14:07:27.453Z,24.75
2022-10-14T14:09:51.203Z,27.17
2022-10-14T14:12:18.361Z,28.73
2022-10-14T14:14:44.815Z,23.52
2022-10-14T14:17:18.577Z,21.35
2022-10-14T14:19:46.382Z,22.50
2022-10-14T14:22:27.306Z,25.42
2022-10-14T14:25:32.606Z,24.98
2022-10-14T14:27:56.112Z,20.70
2022-10-14T14:30:23.628Z,28.42
2022-10-14T14:32:50.063Z,27.25
2022-10-14T14:35:19.349Z,29.30
2022-10-14T14:37:55.788Z,23.77
2022-10-14T14:40:23.945Z,27.98
2022-10-14T14:42:51.593Z,28.98
2022-10-14T14:45:20.649Z,23.48
2022-10-14T14:47:50.361Z,23.17
2022-10-14T14:50:30.443Z,27.75
2022-10-14T14:55:35.453Z,29.02
2022-10-14T14:58:02.229Z,26.45
2022-10-14T15:00:30.670Z,29.20
2022-10-14T15:03:00.636Z,27.42
2022-10-14T15:05:27.251Z,31.25
2022-10-14T15:07:53.802Z,30.63
2022-10-14T15:10:24.298Z,27.40
2022-10-14T15:12:51.837Z,23.02
2022-10-14T15:15:32.357Z,29.45
2022-10-14T15:18:07.077Z,25.73
2022-10-14T15:20:36.650Z,31.30
2022-10-14T15:23:23.015Z,25.63
2022-10-14T15:25:57.112Z,27.42
2022-10-14T15:28:30.968Z,25.17
2022-10-14T15:31:03.012Z,30.45
2022-10-14T15:33:32.154Z,24.83
2022-10-14T15:35:59.785Z,25.92
2022-10-14T15:38:26.519Z,27.85
2022-10-14T15:40:53.122Z,27.05
2022-10-14T15:43:23.416Z,26.05
2022-10-14T15:46:09.078Z,29.05
2022-10-14T15:48:35.518Z,22.75
2022-10-14T15:51:02.060Z,25.90
2022-10-14T15:53:29.454Z,28.65
2022-10-14T15:55:55.936Z,27.30
2022-10-14T15:58:22.398Z,26.35
2022-10-14T16:00:48.822Z,23.15
2022-10-14T16:03:17.820Z,27.48
2022-10-14T16:05:44.215Z,28.50
2022-10-14T16:08:11.311Z,28.92
2022-10-14T16:10:37.678Z,28.20
2022-10-14T16:13:04.119Z,29.17
2022-10-14T16:15:50.775Z,31.70
2022-10-14T16:18:18.420Z,34.35
2022-10-14T16:20:45.324Z,32.42
2022-10-14T16:23:15.121Z,29.45
2022-10-14T16:25:44.178Z,33.50
2022-10-14T16:28:10.996Z,35.70
2022-10-14T16:30:39.606Z,26.17
2022-10-14T16:33:06.160Z,33.22
2022-10-14T16:35:32.665Z,36.40
2022-10-14T16:37:59.374Z,33.72
2022-10-14T16:40:25.784Z,35.70
2022-10-14T16:42:52.241Z,32.72
2022-10-14T16:45:18.729Z,31.85
2022-10-14T16:47:45.177Z,32.65
2022-10-14T16:50:11.666Z,29.95
2022-10-14T16:52:57.593Z,35.53
2022-10-14T16:55:25.339Z,30.27
2022-10-14T16:57:51.822Z,32.45
2022-10-14T17:02:44.860Z,33.00
2022-10-14T17:05:11.336Z,34.80
2022-10-14T17:07:37.752Z,36.22
2022-10-14T17:10:04.921Z,32.50
2022-10-14T17:12:31.348Z,30.77
2022-10-14T17:14:57.749Z,31.73
2022-10-14T17:17:24.258Z,32.78
2022-10-14T17:19:53.980Z,31.00
2022-10-14T17:22:21.021Z,32.75
2022-10-14T17:24:48.014Z,36.75
2022-10-14T17:27:14.513Z,34.78
2022-10-14T17:29:40.981Z,36.08
2022-10-14T17:32:07.389Z,34.45
2022-10-14T17:34:33.925Z,36.65
2022-10-14T17:37:00.424Z,38.90
2022-10-14T17:39:29.455Z,33.20
2022-10-14T17:41:56.233Z,36.25
2022-10-14T17:44:22.619Z,41.58
2022-10-14T17:46:49.159Z,36.60
2022-10-14T17:49:16.062Z,36.22
2022-10-14T17:51:42.498Z,36.35
2022-10-14T17:54:10.485Z,35.78
2022-10-14T17:56:37.712Z,38.60
2022-10-14T17:59:08.118Z,39.95
2022-10-14T18:02:00.901Z,43.85
2022-10-14T18:06:47.513Z,39.40
2022-10-14T18:09:13.925Z,40.17
2022-10-14T18:14:28.474Z,39.75
2022-10-14T18:16:54.887Z,38.85
2022-10-14T18:19:21.347Z,40.92
2022-10-14T18:21:48.329Z,46.83
2022-10-14T18:24:14.760Z,42.42
2022-10-14T18:26:41.425Z,48.60
2022-10-14T18:29:08.092Z,51.55
2022-10-14T18:31:34.593Z,52.03
2022-10-14T18:34:01.205Z,46.40
2022-10-14T18:36:28.527Z,46.13
2022-10-14T18:38:55.161Z,50.75
2022-10-14T18:41:21.637Z,49.60
2022-10-14T18:43:48.269Z,58.40
2022-10-14T18:46:18.553Z,58.05
2022-10-14T18:48:46.900Z,57.58
2022-10-14T18:51:13.629Z,55.17
2022-10-14T18:53:40.311Z,61.88
2022-10-14T18:56:08.692Z,54.72
2022-10-14T18:58:38.556Z,61.60
2022-10-14T19:01:08.239Z,53.60
2022-10-14T19:03:34.794Z,49.17
2022-10-14T19:06:01.310Z,54.22
2022-10-14T19:08:27.836Z,51.70
2022-10-14T19:11:01.518Z,47.38
2022-10-14T19:13:28.093Z,48.40
2022-10-14T19:16:04.567Z,51.65
2022-10-14T19:18:31.077Z,50.58
2022-10-14T19:21:08.932Z,51.22
2022-10-14T19:23:41.497Z,46.65
2022-10-14T19:26:08.446Z,52.67
2022-10-14T19:28:34.959Z,48.35
2022-10-14T19:31:12.062Z,52.70
2022-10-14T19:33:38.983Z,55.45
2022-10-14T19:36:07.241Z,65.55
2022-10-14T19:38:34.188Z,58.53
2022-10-14T19:41:00.902Z,63.08
2022-10-14T19:43:27.497Z,64.78
2022-10-14T19:45:53.950Z,55.63
2022-10-14T19:48:20.366Z,58.30
2022-10-14T19:50:46.804Z,51.88
2022-10-14T19:53:13.231Z,56.95
2022-10-14T19:55:39.761Z,50.03
2022-10-14T19:58:06.251Z,55.15
2022-10-14T20:00:33.075Z,50.30
2022-10-14T20:02:59.480Z,52.75
2022-10-14T20:05:25.944Z,54.17
2022-10-14T20:07:54.518Z,56.17
2022-10-14T20:10:20.958Z,56.58
2022-10-14T20:12:47.371Z,58.53
2022-10-14T20:15:13.913Z,61.25
2022-10-14T20:17:40.333Z,53.75
2022-10-14T20:20:07.187Z,53.47
2022-10-14T20:22:33.591Z,48.00
2022-10-14T20:25:00.143Z,51.25
2022-10-14T20:27:26.802Z,51.03
2022-10-14T20:29:53.346Z,55.00
2022-10-14T20:32:20.989Z,52.10
2022-10-14T20:34:48.056Z,56.05
2022-10-14T20:37:14.481Z,52.25
2022-10-14T20:39:41.014Z,52.83
2022-10-14T20:42:08.468Z,57.88
2022-10-14T20:44:34.954Z,54.22
2022-10-14T20:47:01.431Z,46.40
2022-10-14T20:49:27.816Z,55.17
2022-10-14T20:51:54.248Z,51.25
2022-10-14T20:54:20.767Z,49.38
2022-10-14T20:56:48.001Z,49.80
2022-10-14T20:59:14.896Z,51.35
2022-10-14T21:01:41.400Z,45.50
2022-10-14T21:04:07.947Z,48.22
2022-10-14T21:06:34.552Z,48.88
2022-10-14T21:09:00.989Z,50.03
2022-10-14T21:11:28.181Z,46.25
2022-10-14T21:13:58.779Z,43.83
2022-10-14T21:16:26.338Z,51.33
2022-10-14T21:18:57.623Z,44.47
2022-10-14T21:21:24.887Z,45.95
2022-10-14T21:23:51.485Z,48.65
2022-10-14T21:26:17.989Z,45.30
2022-10-14T21:28:44.551Z,49.08
2022-10-14T21:31:12.779Z,47.50
2022-10-14T21:33:41.182Z,48.72
2022-10-14T21:36:08.857Z,53.53
2022-10-14T21:38:35.313Z,43.25
2022-10-14T21:41:02.108Z,51.63
2022-10-14T21:43:28.993Z,51.42
2022-10-14T21:45:55.474Z,46.42
2022-10-14T21:48:22.252Z,50.10
2022-10-14T21:50:48.743Z,50.33
2022-10-14T21:53:16.220Z,44.47
2022-10-14T21:55:42.769Z,49.30
2022-10-14T21:58:09.229Z,49.58
2022-10-14T22:00:35.638Z,46.80
2022-10-14T22:03:02.286Z,49.50
2022-10-14T22:05:28.712Z,47.83
2022-10-14T22:07:55.157Z,52.83
2022-10-14T22:10:40.211Z,51.80
2022-10-14T22:13:06.619Z,48.67
2022-10-14T22:15:33.037Z,48.08
2022-10-14T22:17:59.462Z,46.85
2022-10-14T22:20:28.090Z,47.20
2022-10-14T22:22:54.485Z,47.88
2022-10-14T22:25:20.924Z,43.47
2022-10-14T22:27:47.355Z,45.03
2022-10-14T22:30:14.144Z,46.43
2022-10-14T22:32:40.547Z,45.17
2022-10-14T22:35:07.451Z,46.80
2022-10-14T22:37:33.863Z,51.65
2022-10-14T22:40:00.291Z,48.33
2022-10-14T22:42:26.735Z,43.85
2022-10-14T22:44:53.184Z,42.80
2022-10-14T22:47:19.858Z,43.17
2022-10-14T22:49:46.465Z,43.60
2022-10-14T22:52:13.044Z,58.28
2022-10-14T22:54:39.484Z,45.33
2022-10-14T22:57:05.961Z,51.13
2022-10-14T22:59:32.602Z,47.70
2022-10-14T23:01:59.013Z,54.20
2022-10-14T23:04:25.504Z,49.20
2022-10-14T23:06:52.111Z,44.93
2022-10-14T23:09:18.549Z,47.93
2022-10-14T23:11:45.005Z,48.23
2022-10-14T23:14:11.432Z,45.97
2022-10-14T23:16:38.424Z,45.73
2022-10-14T23:19:04.893Z,46.17
2022-10-14T23:21:32.297Z,43.80
2022-10-14T23:23:59.483Z,48.33
2022-10-14T23:26:26.461Z,46.40
2022-10-14T23:28:56.358Z,45.80
2022-10-14T23:31:23.624Z,46.03
2022-10-14T23:33:51.772Z,44.80
2022-10-14T23:36:18.482Z,40.33
2022-10-14T23:38:45.179Z,43.83
2022-10-14T23:41:11.823Z,47.40
2022-10-14T23:43:38.452Z,41.50
2022-10-14T23:46:05.054Z,43.83
2022-10-14T23:48:31.627Z,41.33
2022-10-14T23:50:58.041Z,48.33
2022-10-14T23:53:26.443Z,41.78
2022-10-14T23:55:53.118Z,42.80
2022-10-14T23:58:19.607Z,42.05
